sensor_id;sensor_type;location;lat;lon;timestamp;pressure;altitude;pressure_sealevel;temperature;humidity
63019;BME280;49105;46.046;10.760;2024-03-17T00:02:02;96187.91;;;7.68;67.98
63019;BME280;49105;46.046;10.760;2024-03-17T00:04:28;96192.06;;;7.64;68.08
63019;BME280;49105;46.046;10.760;2024-03-17T00:06:54;96183.13;;;7.65;67.98
63019;BME280;49105;46.046;10.760;2024-03-17T00:09:19;96185.19;;;7.63;67.97
63019;BME280;49105;46.046;10.760;2024-03-17T00:11:45;96184.41;;;7.62;68.17
63019;BME280;49105;46.046;10.760;2024-03-17T00:14:11;96188.31;;;7.60;68.05
63019;BME280;49105;46.046;10.760;2024-03-17T00:16:37;96187.03;;;7.62;68.21
63019;BME280;49105;46.046;10.760;2024-03-17T00:19:03;96186.06;;;7.68;67.97
63019;BME280;49105;46.046;10.760;2024-03-17T00:21:28;96186.56;;;7.65;67.67
63019;BME280;49105;46.046;10.760;2024-03-17T00:23:55;96186.78;;;7.47;68.20
63019;BME280;49105;46.046;10.760;2024-03-17T00:26:20;96190.63;;;7.39;68.44
63019;BME280;49105;46.046;10.760;2024-03-17T00:28:46;96193.50;;;7.38;69.02
63019;BME280;49105;46.046;10.760;2024-03-17T00:31:15;96195.81;;;7.34;68.72
63019;BME280;49105;46.046;10.760;2024-03-17T00:33:41;96190.22;;;7.31;68.69
63019;BME280;49105;46.046;10.760;2024-03-17T00:36:07;96190.47;;;7.29;68.91
63019;BME280;49105;46.046;10.760;2024-03-17T00:38:33;96194.44;;;7.32;68.63
63019;BME280;49105;46.046;10.760;2024-03-17T00:40:59;96198.44;;;7.34;68.35
63019;BME280;49105;46.046;10.760;2024-03-17T00:43:24;96199.09;;;7.41;68.15
63019;BME280;49105;46.046;10.760;2024-03-17T00:45:53;96203.06;;;7.44;67.96
63019;BME280;49105;46.046;10.760;2024-03-17T00:48:19;96208.19;;;7.34;68.11
63019;BME280;49105;46.046;10.760;2024-03-17T00:50:45;96218.13;;;7.32;68.44
63019;BME280;49105;46.046;10.760;2024-03-17T00:53:11;96217.41;;;7.36;68.38
63019;BME280;49105;46.046;10.760;2024-03-17T00:55:37;96205.53;;;7.34;68.09
63019;BME280;49105;46.046;10.760;2024-03-17T00:58:03;96209.44;;;7.31;68.04
63019;BME280;49105;46.046;10.760;2024-03-17T01:00:30;96206.25;;;7.29;68.12
63019;BME280;49105;46.046;10.760;2024-03-17T01:02:58;96210.16;;;7.27;67.80
63019;BME280;49105;46.046;10.760;2024-03-17T01:05:24;96211.91;;;7.21;67.51
63019;BME280;49105;46.046;10.760;2024-03-17T01:07:50;96213.25;;;7.24;67.83
63019;BME280;49105;46.046;10.760;2024-03-17T01:10:15;96218.84;;;7.27;67.74
63019;BME280;49105;46.046;10.760;2024-03-17T01:12:41;96215.56;;;7.20;67.97
63019;BME280;49105;46.046;10.760;2024-03-17T01:15:07;96215.47;;;7.15;68.11
63019;BME280;49105;46.046;10.760;2024-03-17T01:17:33;96220.72;;;7.15;68.07
63019;BME280;49105;46.046;10.760;2024-03-17T01:19:59;96210.44;;;7.13;67.96
63019;BME280;49105;46.046;10.760;2024-03-17T01:22:25;96215.84;;;7.07;67.81
63019;BME280;49105;46.046;10.760;2024-03-17T01:24:51;96211.75;;;6.99;68.24
63019;BME280;49105;46.046;10.760;2024-03-17T01:27:17;96210.75;;;7.00;68.25
63019;BME280;49105;46.046;10.760;2024-03-17T01:29:43;96214.38;;;6.99;68.13
63019;BME280;49105;46.046;10.760;2024-03-17T01:32:10;96208.44;;;7.04;68.00
63019;BME280;49105;46.046;10.760;2024-03-17T01:34:38;96212.75;;;7.10;67.58
63019;BME280;49105;46.046;10.760;2024-03-17T01:37:04;96207.94;;;7.07;67.44
63019;BME280;49105;46.046;10.760;2024-03-17T01:39:30;96212.66;;;7.05;67.55
63019;BME280;49105;46.046;10.760;2024-03-17T01:41:58;96206.34;;;7.06;67.35
63019;BME280;49105;46.046;10.760;2024-03-17T01:44:26;96208.19;;;7.05;67.09
63019;BME280;49105;46.046;10.760;2024-03-17T01:46:53;96195.03;;;7.05;67.15
63019;BME280;49105;46.046;10.760;2024-03-17T01:49:20;96207.41;;;7.05;67.18
63019;BME280;49105;46.046;10.760;2024-03-17T01:51:47;96200.69;;;6.97;67.24
63019;BME280;49105;46.046;10.760;2024-03-17T01:54:13;96205.28;;;6.90;67.09
63019;BME280;49105;46.046;10.760;2024-03-17T01:56:39;96211.81;;;6.87;67.45
63019;BME280;49105;46.046;10.760;2024-03-17T01:59:08;96218.09;;;6.86;67.33
63019;BME280;49105;46.046;10.760;2024-03-17T02:01:37;96200.00;;;6.90;67.30
63019;BME280;49105;46.046;10.760;2024-03-17T02:04:04;96201.75;;;6.84;67.43
63019;BME280;49105;46.046;10.760;2024-03-17T02:06:30;96203.09;;;6.87;67.37
63019;BME280;49105;46.046;10.760;2024-03-17T02:08:56;96198.66;;;6.87;66.83
63019;BME280;49105;46.046;10.760;2024-03-17T02:11:32;96195.47;;;6.85;66.63
63019;BME280;49105;46.046;10.760;2024-03-17T02:13:59;96203.59;;;6.84;66.84
63019;BME280;49105;46.046;10.760;2024-03-17T02:16:25;96201.00;;;6.72;67.04
63019;BME280;49105;46.046;10.760;2024-03-17T02:18:57;96192.91;;;6.62;67.21
63019;BME280;49105;46.046;10.760;2024-03-17T02:21:24;96189.50;;;6.50;67.65
63019;BME280;49105;46.046;10.760;2024-03-17T02:23:52;96188.63;;;6.44;67.90
63019;BME280;49105;46.046;10.760;2024-03-17T02:26:18;96187.69;;;6.50;68.16
63019;BME280;49105;46.046;10.760;2024-03-17T02:28:45;96177.97;;;6.51;67.76
63019;BME280;49105;46.046;10.760;2024-03-17T02:31:14;96176.34;;;6.50;67.52
63019;BME280;49105;46.046;10.760;2024-03-17T02:33:41;96184.31;;;6.26;68.57
63019;BME280;49105;46.046;10.760;2024-03-17T02:36:07;96183.19;;;6.22;69.42
63019;BME280;49105;46.046;10.760;2024-03-17T02:38:34;96179.06;;;6.26;69.03
63019;BME280;49105;46.046;10.760;2024-03-17T02:41:19;96178.91;;;6.33;69.09
63019;BME280;49105;46.046;10.760;2024-03-17T02:43:45;96174.69;;;6.32;68.80
63019;BME280;49105;46.046;10.760;2024-03-17T02:46:12;96179.59;;;6.28;69.17
63019;BME280;49105;46.046;10.760;2024-03-17T02:48:39;96177.22;;;6.27;69.12
63019;BME280;49105;46.046;10.760;2024-03-17T02:51:11;96182.25;;;6.28;69.18
63019;BME280;49105;46.046;10.760;2024-03-17T02:53:41;96182.03;;;6.30;68.93
63019;BME280;49105;46.046;10.760;2024-03-17T02:56:07;96181.53;;;6.33;68.78
63019;BME280;49105;46.046;10.760;2024-03-17T02:58:36;96177.06;;;6.33;68.76
63019;BME280;49105;46.046;10.760;2024-03-17T03:01:06;96174.00;;;6.25;68.77
63019;BME280;49105;46.046;10.760;2024-03-17T03:03:32;96171.72;;;6.28;68.66
63019;BME280;49105;46.046;10.760;2024-03-17T03:05:58;96166.00;;;6.31;68.53
63019;BME280;49105;46.046;10.760;2024-03-17T03:08:26;96170.13;;;6.27;68.51
63019;BME280;49105;46.046;10.760;2024-03-17T03:10:52;96166.25;;;6.30;68.49
63019;BME280;49105;46.046;10.760;2024-03-17T03:13:18;96162.94;;;6.34;68.52
63019;BME280;49105;46.046;10.760;2024-03-17T03:15:46;96158.81;;;6.38;68.45
63019;BME280;49105;46.046;10.760;2024-03-17T03:18:13;96160.16;;;6.41;68.09
63019;BME280;49105;46.046;10.760;2024-03-17T03:20:39;96167.06;;;6.30;68.20
63019;BME280;49105;46.046;10.760;2024-03-17T03:23:04;96175.06;;;6.24;68.31
63019;BME280;49105;46.046;10.760;2024-03-17T03:25:30;96178.13;;;6.20;68.84
63019;BME280;49105;46.046;10.760;2024-03-17T03:27:56;96185.03;;;6.10;68.87
63019;BME280;49105;46.046;10.760;2024-03-17T03:30:23;96182.75;;;6.13;69.20
63019;BME280;49105;46.046;10.760;2024-03-17T03:32:49;96183.53;;;6.14;68.74
63019;BME280;49105;46.046;10.760;2024-03-17T03:35:15;96190.28;;;6.21;68.59
63019;BME280;49105;46.046;10.760;2024-03-17T03:37:41;96192.19;;;6.26;68.38
63019;BME280;49105;46.046;10.760;2024-03-17T03:40:08;96187.06;;;6.19;68.09
63019;BME280;49105;46.046;10.760;2024-03-17T03:42:43;96182.94;;;6.00;68.56
63019;BME280;49105;46.046;10.760;2024-03-17T03:45:09;96187.16;;;5.89;68.55
63019;BME280;49105;46.046;10.760;2024-03-17T03:47:44;96186.81;;;5.86;69.17
63019;BME280;49105;46.046;10.760;2024-03-17T03:50:20;96192.97;;;5.80;68.97
63019;BME280;49105;46.046;10.760;2024-03-17T03:52:46;96191.72;;;5.70;69.40
63019;BME280;49105;46.046;10.760;2024-03-17T03:55:12;96186.81;;;5.74;69.57
63019;BME280;49105;46.046;10.760;2024-03-17T03:57:44;96195.25;;;5.88;68.97
63019;BME280;49105;46.046;10.760;2024-03-17T04:00:18;96196.44;;;5.92;68.61
63019;BME280;49105;46.046;10.760;2024-03-17T04:02:50;96190.28;;;5.98;68.32
63019;BME280;49105;46.046;10.760;2024-03-17T04:05:16;96189.50;;;5.97;68.32
63019;BME280;49105;46.046;10.760;2024-03-17T04:07:42;96185.25;;;5.96;68.47
63019;BME280;49105;46.046;10.760;2024-03-17T04:10:09;96181.81;;;5.96;68.16
63019;BME280;49105;46.046;10.760;2024-03-17T04:12:35;96184.09;;;5.81;68.89
63019;BME280;49105;46.046;10.760;2024-03-17T04:15:01;96179.16;;;5.61;69.36
63019;BME280;49105;46.046;10.760;2024-03-17T04:17:28;96186.78;;;5.51;69.61
63019;BME280;49105;46.046;10.760;2024-03-17T04:19:54;96191.03;;;5.52;69.74
63019;BME280;49105;46.046;10.760;2024-03-17T04:22:20;96192.66;;;5.64;69.69
63019;BME280;49105;46.046;10.760;2024-03-17T04:24:48;96184.63;;;5.71;68.98
63019;BME280;49105;46.046;10.760;2024-03-17T04:27:18;96190.16;;;5.81;68.87
63019;BME280;49105;46.046;10.760;2024-03-17T04:29:46;96182.81;;;5.83;68.82
63019;BME280;49105;46.046;10.760;2024-03-17T04:32:13;96188.75;;;5.90;67.97
63019;BME280;49105;46.046;10.760;2024-03-17T04:34:39;96181.13;;;5.89;68.60
63019;BME280;49105;46.046;10.760;2024-03-17T04:37:04;96191.38;;;5.90;68.41
63019;BME280;49105;46.046;10.760;2024-03-17T04:39:30;96192.78;;;5.81;68.38
63019;BME280;49105;46.046;10.760;2024-03-17T04:41:56;96190.47;;;5.61;68.99
63019;BME280;49105;46.046;10.760;2024-03-17T04:44:22;96196.75;;;5.48;69.23
63019;BME280;49105;46.046;10.760;2024-03-17T04:46:48;96203.34;;;5.51;69.53
63019;BME280;49105;46.046;10.760;2024-03-17T04:49:14;96196.88;;;5.65;69.18
63019;BME280;49105;46.046;10.760;2024-03-17T04:51:40;96194.25;;;5.77;69.00
63019;BME280;49105;46.046;10.760;2024-03-17T04:54:06;96193.81;;;5.80;68.61
63019;BME280;49105;46.046;10.760;2024-03-17T04:56:32;96195.25;;;5.88;68.40
63019;BME280;49105;46.046;10.760;2024-03-17T04:58:58;96198.22;;;5.80;68.66
63019;BME280;49105;46.046;10.760;2024-03-17T05:01:25;96201.09;;;5.78;68.35
63019;BME280;49105;46.046;10.760;2024-03-17T05:03:53;96214.00;;;5.80;68.55
63019;BME280;49105;46.046;10.760;2024-03-17T05:06:19;96205.09;;;5.81;68.38
63019;BME280;49105;46.046;10.760;2024-03-17T05:08:45;96213.09;;;5.86;68.13
63019;BME280;49105;46.046;10.760;2024-03-17T05:11:10;96210.72;;;5.84;68.14
63019;BME280;49105;46.046;10.760;2024-03-17T05:13:36;96211.38;;;5.91;67.87
63019;BME280;49105;46.046;10.760;2024-03-17T05:16:05;96206.94;;;5.92;67.61
63019;BME280;49105;46.046;10.760;2024-03-17T05:18:31;96211.25;;;5.86;67.82
63019;BME280;49105;46.046;10.760;2024-03-17T05:21:03;96221.97;;;5.61;68.23
63019;BME280;49105;46.046;10.760;2024-03-17T05:23:34;96211.81;;;5.53;68.87
63019;BME280;49105;46.046;10.760;2024-03-17T05:26:00;96215.22;;;5.54;69.09
63019;BME280;49105;46.046;10.760;2024-03-17T05:28:27;96216.97;;;5.60;69.21
63019;BME280;49105;46.046;10.760;2024-03-17T05:30:53;96217.88;;;5.65;69.29
63019;BME280;49105;46.046;10.760;2024-03-17T05:33:20;96217.19;;;5.70;68.97
63019;BME280;49105;46.046;10.760;2024-03-17T05:38:24;96229.97;;;5.66;69.13
63019;BME280;49105;46.046;10.760;2024-03-17T05:40:57;96237.06;;;5.66;69.27
63019;BME280;49105;46.046;10.760;2024-03-17T05:43:29;96231.00;;;5.65;69.05
63019;BME280;49105;46.046;10.760;2024-03-17T05:45:59;96226.09;;;5.69;69.13
63019;BME280;49105;46.046;10.760;2024-03-17T05:48:25;96223.34;;;5.76;68.32
63019;BME280;49105;46.046;10.760;2024-03-17T05:50:50;96218.59;;;5.84;68.23
63019;BME280;49105;46.046;10.760;2024-03-17T05:53:22;96213.00;;;5.92;68.03
63019;BME280;49105;46.046;10.760;2024-03-17T05:55:51;96218.38;;;5.97;67.87
63019;BME280;49105;46.046;10.760;2024-03-17T05:58:17;96219.38;;;5.85;68.04
63019;BME280;49105;46.046;10.760;2024-03-17T06:00:42;96227.94;;;5.80;68.26
63019;BME280;49105;46.046;10.760;2024-03-17T06:03:09;96236.47;;;5.76;68.55
63019;BME280;49105;46.046;10.760;2024-03-17T06:05:36;96225.66;;;5.84;68.10
63019;BME280;49105;46.046;10.760;2024-03-17T06:08:03;96231.03;;;6.01;68.30
63019;BME280;49105;46.046;10.760;2024-03-17T06:10:30;96225.34;;;6.04;67.56
63019;BME280;49105;46.046;10.760;2024-03-17T06:12:57;96227.75;;;6.05;67.92
63019;BME280;49105;46.046;10.760;2024-03-17T06:15:25;96226.94;;;6.05;67.98
63019;BME280;49105;46.046;10.760;2024-03-17T06:17:51;96232.53;;;5.96;67.84
63019;BME280;49105;46.046;10.760;2024-03-17T06:20:20;96231.53;;;5.97;68.08
63019;BME280;49105;46.046;10.760;2024-03-17T06:22:46;96226.72;;;5.94;68.26
63019;BME280;49105;46.046;10.760;2024-03-17T06:25:13;96229.75;;;5.91;68.47
63019;BME280;49105;46.046;10.760;2024-03-17T06:27:39;96231.72;;;5.96;68.27
63019;BME280;49105;46.046;10.760;2024-03-17T06:30:05;96235.06;;;6.03;68.17
63019;BME280;49105;46.046;10.760;2024-03-17T06:32:36;96241.09;;;6.04;67.82
63019;BME280;49105;46.046;10.760;2024-03-17T06:35:08;96238.94;;;6.12;67.99
63019;BME280;49105;46.046;10.760;2024-03-17T06:37:35;96241.78;;;6.22;67.67
63019;BME280;49105;46.046;10.760;2024-03-17T06:40:01;96237.69;;;6.38;67.51
63019;BME280;49105;46.046;10.760;2024-03-17T06:42:29;96250.56;;;6.40;67.46
63019;BME280;49105;46.046;10.760;2024-03-17T06:44:56;96251.03;;;6.37;67.83
63019;BME280;49105;46.046;10.760;2024-03-17T06:47:22;96250.56;;;6.40;67.85
63019;BME280;49105;46.046;10.760;2024-03-17T06:49:49;96242.78;;;6.45;68.33
63019;BME280;49105;46.046;10.760;2024-03-17T06:52:15;96252.63;;;6.50;68.00
63019;BME280;49105;46.046;10.760;2024-03-17T06:54:40;96251.00;;;6.60;68.20
63019;BME280;49105;46.046;10.760;2024-03-17T06:57:06;96251.81;;;6.61;68.06
63019;BME280;49105;46.046;10.760;2024-03-17T06:59:33;96255.00;;;6.63;68.21
63019;BME280;49105;46.046;10.760;2024-03-17T07:01:59;96244.44;;;6.75;67.75
63019;BME280;49105;46.046;10.760;2024-03-17T07:04:24;96247.84;;;6.87;67.19
63019;BME280;49105;46.046;10.760;2024-03-17T07:06:51;96243.94;;;6.89;66.32
63019;BME280;49105;46.046;10.760;2024-03-17T07:09:17;96247.38;;;6.90;66.04
63019;BME280;49105;46.046;10.760;2024-03-17T07:11:45;96243.94;;;6.89;66.22
63019;BME280;49105;46.046;10.760;2024-03-17T07:14:13;96250.81;;;6.90;66.29
63019;BME280;49105;46.046;10.760;2024-03-17T07:16:39;96245.75;;;7.01;66.03
63019;BME280;49105;46.046;10.760;2024-03-17T07:19:05;96242.16;;;7.07;65.88
63019;BME280;49105;46.046;10.760;2024-03-17T07:21:31;96247.06;;;7.15;65.94
63019;BME280;49105;46.046;10.760;2024-03-17T07:23:57;96241.50;;;7.28;65.63
63019;BME280;49105;46.046;10.760;2024-03-17T07:26:29;96242.72;;;7.37;65.33
63019;BME280;49105;46.046;10.760;2024-03-17T07:28:56;96244.72;;;7.47;65.19
63019;BME280;49105;46.046;10.760;2024-03-17T07:31:22;96237.09;;;7.45;65.28
63019;BME280;49105;46.046;10.760;2024-03-17T07:33:48;96235.56;;;7.33;64.83
63019;BME280;49105;46.046;10.760;2024-03-17T07:36:14;96246.75;;;7.28;65.12
63019;BME280;49105;46.046;10.760;2024-03-17T07:38:40;96244.72;;;7.30;65.11
63019;BME280;49105;46.046;10.760;2024-03-17T07:41:08;96253.31;;;7.26;64.87
63019;BME280;49105;46.046;10.760;2024-03-17T07:43:36;96247.00;;;7.27;64.34
63019;BME280;49105;46.046;10.760;2024-03-17T07:46:07;96256.28;;;7.29;64.26
63019;BME280;49105;46.046;10.760;2024-03-17T07:48:35;96251.91;;;7.35;64.30
63019;BME280;49105;46.046;10.760;2024-03-17T07:51:05;96244.66;;;7.42;63.73
63019;BME280;49105;46.046;10.760;2024-03-17T07:53:35;96241.38;;;7.52;63.53
63019;BME280;49105;46.046;10.760;2024-03-17T07:56:09;96246.91;;;7.67;63.04
63019;BME280;49105;46.046;10.760;2024-03-17T07:58:36;96243.97;;;7.80;63.04
63019;BME280;49105;46.046;10.760;2024-03-17T08:01:05;96249.47;;;7.95;62.82
63019;BME280;49105;46.046;10.760;2024-03-17T08:03:35;96245.31;;;8.16;62.58
63019;BME280;49105;46.046;10.760;2024-03-17T08:06:02;96240.09;;;8.38;62.64
63019;BME280;49105;46.046;10.760;2024-03-17T08:08:29;96227.41;;;8.57;62.10
63019;BME280;49105;46.046;10.760;2024-03-17T08:10:55;96236.31;;;8.73;61.53
63019;BME280;49105;46.046;10.760;2024-03-17T08:13:21;96225.88;;;8.83;60.70
63019;BME280;49105;46.046;10.760;2024-03-17T08:16:01;96222.66;;;9.03;60.55
63019;BME280;49105;46.046;10.760;2024-03-17T08:18:27;96224.13;;;9.16;60.29
63019;BME280;49105;46.046;10.760;2024-03-17T08:20:53;96220.25;;;9.24;60.17
63019;BME280;49105;46.046;10.760;2024-03-17T08:23:22;96212.16;;;9.35;59.85
63019;BME280;49105;46.046;10.760;2024-03-17T08:25:57;96216.50;;;9.47;59.58
63019;BME280;49105;46.046;10.760;2024-03-17T08:28:24;96210.75;;;9.55;59.67
63019;BME280;49105;46.046;10.760;2024-03-17T08:30:56;96203.47;;;9.67;59.51
63019;BME280;49105;46.046;10.760;2024-03-17T08:33:22;96195.06;;;9.75;58.44
63019;BME280;49105;46.046;10.760;2024-03-17T08:36:05;96190.38;;;9.87;58.50
63019;BME280;49105;46.046;10.760;2024-03-17T08:38:33;96189.91;;;9.95;57.82
63019;BME280;49105;46.046;10.760;2024-03-17T08:41:07;96189.97;;;10.06;58.23
63019;BME280;49105;46.046;10.760;2024-03-17T08:43:34;96188.16;;;10.11;57.75
63019;BME280;49105;46.046;10.760;2024-03-17T08:46:04;96185.91;;;10.25;57.49
63019;BME280;49105;46.046;10.760;2024-03-17T08:48:35;96184.09;;;10.36;56.81
63019;BME280;49105;46.046;10.760;2024-03-17T08:51:02;96181.22;;;10.42;56.50
63019;BME280;49105;46.046;10.760;2024-03-17T08:53:28;96184.97;;;10.52;56.59
63019;BME280;49105;46.046;10.760;2024-03-17T08:55:54;96174.94;;;10.59;56.37
63019;BME280;49105;46.046;10.760;2024-03-17T08:58:20;96182.63;;;10.65;56.43
63019;BME280;49105;46.046;10.760;2024-03-17T09:00:46;96172.84;;;10.66;55.42
63019;BME280;49105;46.046;10.760;2024-03-17T09:03:12;96177.59;;;10.69;55.48
63019;BME280;49105;46.046;10.760;2024-03-17T09:05:47;96177.38;;;10.76;55.90
63019;BME280;49105;46.046;10.760;2024-03-17T09:08:22;96177.09;;;10.77;55.32
63019;BME280;49105;46.046;10.760;2024-03-17T09:10:52;96165.72;;;10.82;55.30
63019;BME280;49105;46.046;10.760;2024-03-17T09:13:19;96160.72;;;10.85;54.64
63019;BME280;49105;46.046;10.760;2024-03-17T09:16:00;96161.28;;;10.92;54.13
63019;BME280;49105;46.046;10.760;2024-03-17T09:18:27;96153.88;;;10.95;53.89
63019;BME280;49105;46.046;10.760;2024-03-17T09:21:00;96161.03;;;10.99;54.10
63019;BME280;49105;46.046;10.760;2024-03-17T09:23:26;96160.25;;;11.04;54.24
63019;BME280;49105;46.046;10.760;2024-03-17T09:25:56;96160.25;;;11.04;53.28
63019;BME280;49105;46.046;10.760;2024-03-17T09:28:22;96163.69;;;11.04;52.89
63019;BME280;49105;46.046;10.760;2024-03-17T09:30:48;96151.22;;;11.10;52.76
63019;BME280;49105;46.046;10.760;2024-03-17T09:33:14;96149.13;;;11.22;53.25
63019;BME280;49105;46.046;10.760;2024-03-17T09:35:40;96150.50;;;11.40;53.12
63019;BME280;49105;46.046;10.760;2024-03-17T09:38:06;96146.25;;;11.49;51.54
63019;BME280;49105;46.046;10.760;2024-03-17T09:40:32;96148.63;;;11.51;50.21
63019;BME280;49105;46.046;10.760;2024-03-17T09:42:58;96142.78;;;11.59;50.47
63019;BME280;49105;46.046;10.760;2024-03-17T09:45:24;96138.00;;;11.66;49.78
63019;BME280;49105;46.046;10.760;2024-03-17T09:47:51;96140.66;;;11.81;49.99
63019;BME280;49105;46.046;10.760;2024-03-17T09:50:17;96144.09;;;12.02;50.73
63019;BME280;49105;46.046;10.760;2024-03-17T09:52:46;96144.31;;;12.21;50.14
63019;BME280;49105;46.046;10.760;2024-03-17T09:55:16;96138.44;;;12.34;49.89
63019;BME280;49105;46.046;10.760;2024-03-17T09:57:43;96129.34;;;12.46;49.44
63019;BME280;49105;46.046;10.760;2024-03-17T10:00:11;96121.09;;;12.52;48.32
63019;BME280;49105;46.046;10.760;2024-03-17T10:02:45;96122.13;;;12.61;48.37
63019;BME280;49105;46.046;10.760;2024-03-17T10:05:19;96115.44;;;12.69;47.99
63019;BME280;49105;46.046;10.760;2024-03-17T10:07:46;96124.47;;;12.73;47.55
63019;BME280;49105;46.046;10.760;2024-03-17T10:10:12;96115.63;;;12.83;47.63
63019;BME280;49105;46.046;10.760;2024-03-17T10:12:39;96107.91;;;12.86;47.36
63019;BME280;49105;46.046;10.760;2024-03-17T10:15:05;96105.50;;;12.90;47.95
63019;BME280;49105;46.046;10.760;2024-03-17T10:17:32;96104.13;;;12.98;47.86
63019;BME280;49105;46.046;10.760;2024-03-17T10:20:17;96103.53;;;13.06;48.08
63019;BME280;49105;46.046;10.760;2024-03-17T10:25:25;96087.22;;;13.23;47.97
63019;BME280;49105;46.046;10.760;2024-03-17T10:27:52;96091.16;;;13.30;48.23
63019;BME280;49105;46.046;10.760;2024-03-17T10:30:18;96084.47;;;13.33;47.48
63019;BME280;49105;46.046;10.760;2024-03-17T10:32:45;96094.31;;;13.37;47.81
63019;BME280;49105;46.046;10.760;2024-03-17T10:38:04;96077.97;;;13.49;48.34
63019;BME280;49105;46.046;10.760;2024-03-17T10:40:32;96074.50;;;13.54;48.60
63019;BME280;49105;46.046;10.760;2024-03-17T10:43:00;96068.31;;;13.58;48.14
63019;BME280;49105;46.046;10.760;2024-03-17T10:45:27;96061.06;;;13.64;47.67
63019;BME280;49105;46.046;10.760;2024-03-17T10:47:59;96054.00;;;13.78;47.46
63019;BME280;49105;46.046;10.760;2024-03-17T10:50:29;96053.84;;;13.94;47.94
63019;BME280;49105;46.046;10.760;2024-03-17T10:53:01;96047.91;;;14.02;46.74
63019;BME280;49105;46.046;10.760;2024-03-17T10:55:32;96045.41;;;14.10;45.34
63019;BME280;49105;46.046;10.760;2024-03-17T10:58:03;96033.84;;;14.20;46.11
63019;BME280;49105;46.046;10.760;2024-03-17T11:00:35;96032.13;;;14.29;45.25
63019;BME280;49105;46.046;10.760;2024-03-17T11:03:02;96028.84;;;14.37;44.16
63019;BME280;49105;46.046;10.760;2024-03-17T11:05:29;96024.53;;;14.42;43.48
63019;BME280;49105;46.046;10.760;2024-03-17T11:07:55;96021.78;;;14.47;43.48
63019;BME280;49105;46.046;10.760;2024-03-17T11:10:34;96017.41;;;14.56;42.94
63019;BME280;49105;46.046;10.760;2024-03-17T11:13:01;96015.50;;;14.61;42.46
63019;BME280;49105;46.046;10.760;2024-03-17T11:20:34;95994.53;;;14.74;40.39
63019;BME280;49105;46.046;10.760;2024-03-17T11:23:01;96002.66;;;14.82;39.77
63019;BME280;49105;46.046;10.760;2024-03-17T11:38:58;95974.34;;;15.19;38.29
63019;BME280;49105;46.046;10.760;2024-03-17T11:41:37;95977.41;;;15.26;38.49
63019;BME280;49105;46.046;10.760;2024-03-17T11:46:55;95966.88;;;15.35;38.56
63019;BME280;49105;46.046;10.760;2024-03-17T11:49:27;95971.38;;;15.34;37.73
63019;BME280;49105;46.046;10.760;2024-03-17T11:52:01;95975.66;;;15.35;38.02
63019;BME280;49105;46.046;10.760;2024-03-17T11:54:29;95962.53;;;15.39;37.85
63019;BME280;49105;46.046;10.760;2024-03-17T11:56:59;95964.59;;;15.42;38.17
63019;BME280;49105;46.046;10.760;2024-03-17T11:59:25;95965.31;;;15.48;38.56
63019;BME280;49105;46.046;10.760;2024-03-17T12:01:52;95959.34;;;15.51;38.43
63019;BME280;49105;46.046;10.760;2024-03-17T12:04:20;95939.00;;;15.55;38.39
63019;BME280;49105;46.046;10.760;2024-03-17T12:06:52;95946.16;;;15.59;38.02
63019;BME280;49105;46.046;10.760;2024-03-17T12:09:26;95941.59;;;15.60;37.81
63019;BME280;49105;46.046;10.760;2024-03-17T12:14:27;95936.66;;;15.67;37.96
63019;BME280;49105;46.046;10.760;2024-03-17T12:16:55;95931.25;;;15.72;37.89
63019;BME280;49105;46.046;10.760;2024-03-17T12:19:22;95931.13;;;15.77;37.94
63019;BME280;49105;46.046;10.760;2024-03-17T12:21:53;95923.31;;;15.81;38.12
63019;BME280;49105;46.046;10.760;2024-03-17T12:24:20;95937.84;;;15.88;38.22
63019;BME280;49105;46.046;10.760;2024-03-17T12:26:50;95928.44;;;15.91;38.19
63019;BME280;49105;46.046;10.760;2024-03-17T12:29:32;95929.53;;;15.90;38.00
63019;BME280;49105;46.046;10.760;2024-03-17T12:32:06;95927.66;;;15.91;38.00
63019;BME280;49105;46.046;10.760;2024-03-17T12:34:40;95923.09;;;15.91;38.22
63019;BME280;49105;46.046;10.760;2024-03-17T12:37:07;95919.66;;;15.91;38.41
63019;BME280;49105;46.046;10.760;2024-03-17T12:39:34;95923.31;;;15.95;38.00
63019;BME280;49105;46.046;10.760;2024-03-17T12:42:23;95912.31;;;15.96;38.34
63019;BME280;49105;46.046;10.760;2024-03-17T12:44:58;95913.13;;;15.97;38.60
63019;BME280;49105;46.046;10.760;2024-03-17T12:47:26;95904.03;;;15.98;38.44
63019;BME280;49105;46.046;10.760;2024-03-17T12:49:53;95902.63;;;16.00;38.31
63019;BME280;49105;46.046;10.760;2024-03-17T12:52:30;95894.31;;;16.02;38.64
63019;BME280;49105;46.046;10.760;2024-03-17T12:57:47;95893.09;;;16.08;38.52
63019;BME280;49105;46.046;10.760;2024-03-17T13:00:32;95893.03;;;16.13;38.91
63019;BME280;49105;46.046;10.760;2024-03-17T13:02:59;95887.69;;;16.13;38.58
63019;BME280;49105;46.046;10.760;2024-03-17T13:05:25;95886.38;;;16.10;38.51
63019;BME280;49105;46.046;10.760;2024-03-17T13:07:51;95890.94;;;16.10;38.59
63019;BME280;49105;46.046;10.760;2024-03-17T13:10:19;95883.53;;;16.07;38.56
63019;BME280;49105;46.046;10.760;2024-03-17T13:12:47;95883.53;;;16.07;38.60
63019;BME280;49105;46.046;10.760;2024-03-17T13:15:15;95884.44;;;16.02;38.36
63019;BME280;49105;46.046;10.760;2024-03-17T13:17:44;95881.09;;;15.97;38.10
63019;BME280;49105;46.046;10.760;2024-03-17T13:20:15;95886.53;;;15.92;38.47
63019;BME280;49105;46.046;10.760;2024-03-17T13:22:42;95880.50;;;15.86;38.52
63019;BME280;49105;46.046;10.760;2024-03-17T13:25:09;95876.56;;;15.83;39.07
63019;BME280;49105;46.046;10.760;2024-03-17T13:27:37;95876.34;;;15.80;38.92
63019;BME280;49105;46.046;10.760;2024-03-17T13:30:04;95872.44;;;15.77;38.76
63019;BME280;49105;46.046;10.760;2024-03-17T13:32:31;95871.13;;;15.75;39.04
63019;BME280;49105;46.046;10.760;2024-03-17T13:34:57;95876.78;;;15.73;39.47
63019;BME280;49105;46.046;10.760;2024-03-17T13:37:23;95878.66;;;15.73;39.69